sensor_id;sensor_type;location;lat;lon;timestamp;P1;durP1;ratioP1;P2;durP2;ratioP2
51800;SDS011;37855;53.204;6.568;2023-04-10T00:02:21;35.05;;;20.42;;
51800;SDS011;37855;53.204;6.568;2023-04-10T00:04:47;34.23;;;21.40;;
51800;SDS011;37855;53.204;6.568;2023-04-10T00:07:13;36.15;;;22.65;;
51800;SDS011;37855;53.204;6.568;2023-04-10T00:09:39;40.00;;;23.65;;
51800;SDS011;37855;53.204;6.568;2023-04-10T00:12:05;38.00;;;22.40;;
51800;SDS011;37855;53.204;6.568;2023-04-10T00:14:31;39.20;;;22.65;;
51800;SDS011;37855;53.204;6.568;2023-04-10T00:16:57;39.95;;;24.10;;
51800;SDS011;37855;53.204;6.568;2023-04-10T00:19:22;40.73;;;23.73;;
51800;SDS011;37855;53.204;6.568;2023-04-10T00:21:48;40.60;;;23.23;;
51800;SDS011;37855;53.204;6.568;2023-04-10T00:24:14;39.10;;;23.00;;
51800;SDS011;37855;53.204;6.568;2023-04-10T00:26:40;41.47;;;23.45;;
51800;SDS011;37855;53.204;6.568;2023-04-10T00:29:06;41.87;;;25.23;;
51800;SDS011;37855;53.204;6.568;2023-04-10T00:31:32;42.75;;;25.67;;
51800;SDS011;37855;53.204;6.568;2023-04-10T00:33:58;42.35;;;23.98;;
51800;SDS011;37855;53.204;6.568;2023-04-10T00:36:26;42.83;;;24.27;;
51800;SDS011;37855;53.204;6.568;2023-04-10T00:38:52;43.97;;;25.42;;
51800;SDS011;37855;53.204;6.568;2023-04-10T00:41:18;42.28;;;25.85;;
51800;SDS011;37855;53.204;6.568;2023-04-10T00:43:43;42.60;;;25.90;;
51800;SDS011;37855;53.204;6.568;2023-04-10T00:46:09;50.72;;;27.83;;
51800;SDS011;37855;53.204;6.568;2023-04-10T00:48:35;47.67;;;26.83;;
51800;SDS011;37855;53.204;6.568;2023-04-10T00:51:01;48.30;;;25.55;;
51800;SDS011;37855;53.204;6.568;2023-04-10T00:53:28;48.38;;;27.98;;
51800;SDS011;37855;53.204;6.568;2023-04-10T00:55:54;50.20;;;27.70;;
51800;SDS011;37855;53.204;6.568;2023-04-10T00:58:21;48.78;;;28.10;;
51800;SDS011;37855;53.204;6.568;2023-04-10T01:00:46;50.53;;;28.53;;
51800;SDS011;37855;53.204;6.568;2023-04-10T01:03:13;49.53;;;26.70;;
51800;SDS011;37855;53.204;6.568;2023-04-10T01:05:59;50.73;;;27.60;;
51800;SDS011;37855;53.204;6.568;2023-04-10T01:14:39;48.33;;;27.83;;
51800;SDS011;37855;53.204;6.568;2023-04-10T01:16:50;52.40;;;29.27;;
51800;SDS011;37855;53.204;6.568;2023-04-10T01:19:24;52.17;;;29.27;;
51800;SDS011;37855;53.204;6.568;2023-04-10T01:22:10;48.70;;;29.17;;
51800;SDS011;37855;53.204;6.568;2023-04-10T01:24:46;54.13;;;30.70;;
51800;SDS011;37855;53.204;6.568;2023-04-10T01:30:14;55.55;;;29.67;;
51800;SDS011;37855;53.204;6.568;2023-04-10T01:32:42;50.33;;;28.80;;
51800;SDS011;37855;53.204;6.568;2023-04-10T01:35:09;53.05;;;30.05;;
51800;SDS011;37855;53.204;6.568;2023-04-10T01:37:39;52.83;;;30.40;;
51800;SDS011;37855;53.204;6.568;2023-04-10T01:40:08;52.45;;;30.40;;
51800;SDS011;37855;53.204;6.568;2023-04-10T01:42:49;51.83;;;30.70;;
51800;SDS011;37855;53.204;6.568;2023-04-10T01:45:21;54.17;;;31.00;;
51800;SDS011;37855;53.204;6.568;2023-04-10T01:47:51;54.22;;;30.55;;
51800;SDS011;37855;53.204;6.568;2023-04-10T01:50:17;51.05;;;31.02;;
51800;SDS011;37855;53.204;6.568;2023-04-10T01:52:45;50.90;;;30.35;;
51800;SDS011;37855;53.204;6.568;2023-04-10T01:55:12;52.03;;;31.30;;
51800;SDS011;37855;53.204;6.568;2023-04-10T01:57:38;51.53;;;31.63;;
51800;SDS011;37855;53.204;6.568;2023-04-10T02:00:04;53.70;;;30.80;;
51800;SDS011;37855;53.204;6.568;2023-04-10T02:02:31;51.00;;;31.35;;
51800;SDS011;37855;53.204;6.568;2023-04-10T02:04:57;54.37;;;31.27;;
51800;SDS011;37855;53.204;6.568;2023-04-10T02:07:34;53.80;;;32.17;;
51800;SDS011;37855;53.204;6.568;2023-04-10T02:10:14;56.67;;;32.70;;
51800;SDS011;37855;53.204;6.568;2023-04-10T02:12:52;56.67;;;32.95;;
51800;SDS011;37855;53.204;6.568;2023-04-10T02:15:22;52.58;;;32.25;;
51800;SDS011;37855;53.204;6.568;2023-04-10T02:17:50;55.23;;;32.03;;
51800;SDS011;37855;53.204;6.568;2023-04-10T02:20:20;54.55;;;33.15;;
51800;SDS011;37855;53.204;6.568;2023-04-10T02:22:47;53.60;;;31.80;;
51800;SDS011;37855;53.204;6.568;2023-04-10T02:25:15;53.83;;;31.00;;
51800;SDS011;37855;53.204;6.568;2023-04-10T02:27:40;56.75;;;32.33;;
51800;SDS011;37855;53.204;6.568;2023-04-10T02:30:06;51.20;;;31.67;;
51800;SDS011;37855;53.204;6.568;2023-04-10T02:32:33;52.50;;;31.80;;
51800;SDS011;37855;53.204;6.568;2023-04-10T02:34:59;53.57;;;32.40;;
51800;SDS011;37855;53.204;6.568;2023-04-10T02:37:26;58.08;;;32.83;;
51800;SDS011;37855;53.204;6.568;2023-04-10T02:39:51;54.78;;;32.20;;
51800;SDS011;37855;53.204;6.568;2023-04-10T02:42:18;50.70;;;31.45;;
51800;SDS011;37855;53.204;6.568;2023-04-10T02:44:44;55.73;;;31.73;;
51800;SDS011;37855;53.204;6.568;2023-04-10T02:47:11;51.35;;;30.33;;
51800;SDS011;37855;53.204;6.568;2023-04-10T02:49:36;52.90;;;31.20;;
51800;SDS011;37855;53.204;6.568;2023-04-10T02:52:02;52.80;;;31.58;;
51800;SDS011;37855;53.204;6.568;2023-04-10T02:54:28;52.20;;;30.97;;
51800;SDS011;37855;53.204;6.568;2023-04-10T02:56:54;55.13;;;31.95;;
51800;SDS011;37855;53.204;6.568;2023-04-10T02:59:21;53.63;;;31.70;;
51800;SDS011;37855;53.204;6.568;2023-04-10T03:01:50;54.83;;;31.50;;
51800;SDS011;37855;53.204;6.568;2023-04-10T03:04:17;52.22;;;31.65;;
51800;SDS011;37855;53.204;6.568;2023-04-10T03:06:43;55.28;;;31.90;;
51800;SDS011;37855;53.204;6.568;2023-04-10T03:09:09;55.55;;;32.25;;
51800;SDS011;37855;53.204;6.568;2023-04-10T03:11:35;52.63;;;31.97;;
51800;SDS011;37855;53.204;6.568;2023-04-10T03:14:00;50.53;;;30.95;;
51800;SDS011;37855;53.204;6.568;2023-04-10T03:16:26;53.00;;;31.33;;
51800;SDS011;37855;53.204;6.568;2023-04-10T03:18:53;51.60;;;32.20;;
51800;SDS011;37855;53.204;6.568;2023-04-10T03:21:19;54.93;;;31.80;;
51800;SDS011;37855;53.204;6.568;2023-04-10T03:23:45;48.55;;;30.33;;
51800;SDS011;37855;53.204;6.568;2023-04-10T03:26:11;52.40;;;31.60;;
51800;SDS011;37855;53.204;6.568;2023-04-10T03:28:36;52.57;;;31.17;;
51800;SDS011;37855;53.204;6.568;2023-04-10T03:31:03;53.10;;;31.50;;
51800;SDS011;37855;53.204;6.568;2023-04-10T03:33:30;52.38;;;32.30;;
51800;SDS011;37855;53.204;6.568;2023-04-10T03:35:56;57.23;;;32.77;;
51800;SDS011;37855;53.204;6.568;2023-04-10T03:38:22;56.38;;;33.08;;
51800;SDS011;37855;53.204;6.568;2023-04-10T03:40:48;50.88;;;31.55;;
51800;SDS011;37855;53.204;6.568;2023-04-10T03:43:13;56.03;;;33.00;;
51800;SDS011;37855;53.204;6.568;2023-04-10T03:45:39;57.78;;;32.92;;
51800;SDS011;37855;53.204;6.568;2023-04-10T03:48:05;54.03;;;32.23;;
51800;SDS011;37855;53.204;6.568;2023-04-10T03:50:30;55.72;;;31.80;;
51800;SDS011;37855;53.204;6.568;2023-04-10T03:52:56;53.47;;;32.67;;
51800;SDS011;37855;53.204;6.568;2023-04-10T03:55:21;57.40;;;33.30;;
51800;SDS011;37855;53.204;6.568;2023-04-10T03:57:49;53.75;;;32.15;;
51800;SDS011;37855;53.204;6.568;2023-04-10T04:00:15;56.58;;;33.63;;
51800;SDS011;37855;53.204;6.568;2023-04-10T04:02:44;53.33;;;32.07;;
51800;SDS011;37855;53.204;6.568;2023-04-10T04:05:09;55.70;;;32.03;;
51800;SDS011;37855;53.204;6.568;2023-04-10T04:07:35;56.13;;;33.33;;
51800;SDS011;37855;53.204;6.568;2023-04-10T04:10:01;57.10;;;31.93;;
51800;SDS011;37855;53.204;6.568;2023-04-10T04:12:27;54.85;;;33.28;;
51800;SDS011;37855;53.204;6.568;2023-04-10T04:14:53;61.08;;;32.92;;
51800;SDS011;37855;53.204;6.568;2023-04-10T04:17:18;54.37;;;33.33;;
51800;SDS011;37855;53.204;6.568;2023-04-10T04:19:44;53.30;;;32.17;;
51800;SDS011;37855;53.204;6.568;2023-04-10T04:22:13;55.00;;;31.80;;
51800;SDS011;37855;53.204;6.568;2023-04-10T04:24:39;59.08;;;34.22;;
51800;SDS011;37855;53.204;6.568;2023-04-10T04:27:05;57.35;;;33.25;;
51800;SDS011;37855;53.204;6.568;2023-04-10T04:29:31;54.97;;;32.67;;
51800;SDS011;37855;53.204;6.568;2023-04-10T04:31:56;60.03;;;34.00;;
51800;SDS011;37855;53.204;6.568;2023-04-10T04:34:23;53.40;;;32.78;;
51800;SDS011;37855;53.204;6.568;2023-04-10T04:36:49;57.20;;;32.23;;
51800;SDS011;37855;53.204;6.568;2023-04-10T04:39:15;53.70;;;32.65;;
51800;SDS011;37855;53.204;6.568;2023-04-10T04:41:40;58.10;;;33.07;;
51800;SDS011;37855;53.204;6.568;2023-04-10T04:44:06;53.17;;;32.65;;
51800;SDS011;37855;53.204;6.568;2023-04-10T04:46:33;54.42;;;31.73;;
51800;SDS011;37855;53.204;6.568;2023-04-10T04:49:02;56.70;;;33.37;;
51800;SDS011;37855;53.204;6.568;2023-04-10T04:51:27;54.53;;;32.58;;
51800;SDS011;37855;53.204;6.568;2023-04-10T04:53:53;51.80;;;32.77;;
51800;SDS011;37855;53.204;6.568;2023-04-10T04:56:18;57.95;;;33.83;;
51800;SDS011;37855;53.204;6.568;2023-04-10T04:58:44;52.57;;;31.63;;
51800;SDS011;37855;53.204;6.568;2023-04-10T05:01:10;59.38;;;33.65;;
51800;SDS011;37855;53.204;6.568;2023-04-10T05:03:36;55.77;;;32.87;;
51800;SDS011;37855;53.204;6.568;2023-04-10T05:06:02;56.25;;;33.22;;
51800;SDS011;37855;53.204;6.568;2023-04-10T05:08:28;56.40;;;32.63;;
51800;SDS011;37855;53.204;6.568;2023-04-10T05:10:59;51.47;;;32.07;;
51800;SDS011;37855;53.204;6.568;2023-04-10T05:13:25;55.08;;;32.97;;
51800;SDS011;37855;53.204;6.568;2023-04-10T05:15:51;54.65;;;33.50;;
51800;SDS011;37855;53.204;6.568;2023-04-10T05:18:16;52.40;;;32.07;;
51800;SDS011;37855;53.204;6.568;2023-04-10T05:20:47;52.53;;;31.88;;
51800;SDS011;37855;53.204;6.568;2023-04-10T05:23:13;55.95;;;33.20;;
51800;SDS011;37855;53.204;6.568;2023-04-10T05:25:40;55.27;;;31.93;;
51800;SDS011;37855;53.204;6.568;2023-04-10T05:28:06;55.25;;;32.80;;
51800;SDS011;37855;53.204;6.568;2023-04-10T05:30:31;54.72;;;33.97;;
51800;SDS011;37855;53.204;6.568;2023-04-10T05:32:57;54.93;;;32.50;;
51800;SDS011;37855;53.204;6.568;2023-04-10T05:35:23;57.28;;;34.63;;
51800;SDS011;37855;53.204;6.568;2023-04-10T05:37:50;54.43;;;33.37;;
51800;SDS011;37855;53.204;6.568;2023-04-10T05:40:15;55.97;;;33.10;;
51800;SDS011;37855;53.204;6.568;2023-04-10T05:42:41;55.17;;;33.10;;
51800;SDS011;37855;53.204;6.568;2023-04-10T05:45:07;56.03;;;33.45;;
51800;SDS011;37855;53.204;6.568;2023-04-10T05:47:33;51.33;;;32.58;;
51800;SDS011;37855;53.204;6.568;2023-04-10T05:49:59;55.20;;;33.30;;
51800;SDS011;37855;53.204;6.568;2023-04-10T05:52:24;57.67;;;33.70;;
51800;SDS011;37855;53.204;6.568;2023-04-10T05:54:51;55.13;;;32.63;;
51800;SDS011;37855;53.204;6.568;2023-04-10T05:57:17;56.38;;;33.85;;
51800;SDS011;37855;53.204;6.568;2023-04-10T05:59:42;55.07;;;32.50;;
51800;SDS011;37855;53.204;6.568;2023-04-10T06:02:08;51.40;;;32.00;;
51800;SDS011;37855;53.204;6.568;2023-04-10T06:04:34;54.75;;;33.00;;
51800;SDS011;37855;53.204;6.568;2023-04-10T06:07:00;54.78;;;33.05;;
51800;SDS011;37855;53.204;6.568;2023-04-10T06:09:26;51.03;;;31.43;;
51800;SDS011;37855;53.204;6.568;2023-04-10T06:11:53;49.55;;;30.40;;
51800;SDS011;37855;53.204;6.568;2023-04-10T06:14:19;49.28;;;31.45;;
51800;SDS011;37855;53.204;6.568;2023-04-10T06:16:45;51.25;;;30.35;;
51800;SDS011;37855;53.204;6.568;2023-04-10T06:19:10;52.33;;;31.10;;
51800;SDS011;37855;53.204;6.568;2023-04-10T06:21:36;49.20;;;30.08;;
51800;SDS011;37855;53.204;6.568;2023-04-10T06:24:02;49.97;;;30.20;;
51800;SDS011;37855;53.204;6.568;2023-04-10T06:26:28;48.13;;;29.95;;
51800;SDS011;37855;53.204;6.568;2023-04-10T06:28:53;49.23;;;29.07;;
51800;SDS011;37855;53.204;6.568;2023-04-10T06:31:19;49.63;;;30.37;;
51800;SDS011;37855;53.204;6.568;2023-04-10T06:33:48;47.70;;;29.30;;
51800;SDS011;37855;53.204;6.568;2023-04-10T06:36:14;47.90;;;28.83;;
51800;SDS011;37855;53.204;6.568;2023-04-10T06:38:41;49.28;;;28.58;;
51800;SDS011;37855;53.204;6.568;2023-04-10T06:41:06;47.37;;;27.67;;
51800;SDS011;37855;53.204;6.568;2023-04-10T06:43:35;47.08;;;28.33;;
51800;SDS011;37855;53.204;6.568;2023-04-10T06:46:03;45.60;;;27.23;;
51800;SDS011;37855;53.204;6.568;2023-04-10T06:48:29;42.88;;;26.58;;
51800;SDS011;37855;53.204;6.568;2023-04-10T06:50:56;45.20;;;28.00;;
51800;SDS011;37855;53.204;6.568;2023-04-10T06:53:24;45.80;;;27.55;;
51800;SDS011;37855;53.204;6.568;2023-04-10T06:55:50;46.22;;;26.45;;
51800;SDS011;37855;53.204;6.568;2023-04-10T06:58:15;42.83;;;27.13;;
51800;SDS011;37855;53.204;6.568;2023-04-10T07:00:41;41.20;;;26.23;;
51800;SDS011;37855;53.204;6.568;2023-04-10T07:03:07;41.30;;;25.80;;
51800;SDS011;37855;53.204;6.568;2023-04-10T07:05:33;42.17;;;25.33;;
51800;SDS011;37855;53.204;6.568;2023-04-10T07:07:59;42.33;;;25.13;;
51800;SDS011;37855;53.204;6.568;2023-04-10T07:10:25;45.57;;;27.83;;
51800;SDS011;37855;53.204;6.568;2023-04-10T07:12:51;43.40;;;26.85;;
51800;SDS011;37855;53.204;6.568;2023-04-10T07:15:16;41.85;;;26.23;;
51800;SDS011;37855;53.204;6.568;2023-04-10T07:17:42;43.70;;;26.47;;
51800;SDS011;37855;53.204;6.568;2023-04-10T07:20:11;42.42;;;27.23;;
51800;SDS011;37855;53.204;6.568;2023-04-10T07:22:37;44.45;;;26.88;;
51800;SDS011;37855;53.204;6.568;2023-04-10T07:25:11;44.03;;;27.15;;
51800;SDS011;37855;53.204;6.568;2023-04-10T07:27:38;42.80;;;26.50;;
51800;SDS011;37855;53.204;6.568;2023-04-10T07:30:04;43.47;;;26.05;;
51800;SDS011;37855;53.204;6.568;2023-04-10T07:32:30;43.15;;;26.42;;
51800;SDS011;37855;53.204;6.568;2023-04-10T07:34:58;44.35;;;26.95;;
51800;SDS011;37855;53.204;6.568;2023-04-10T07:37:24;44.67;;;26.93;;
51800;SDS011;37855;53.204;6.568;2023-04-10T07:39:50;44.78;;;26.60;;
51800;SDS011;37855;53.204;6.568;2023-04-10T07:42:16;42.42;;;25.73;;
51800;SDS011;37855;53.204;6.568;2023-04-10T07:44:41;43.97;;;26.00;;
51800;SDS011;37855;53.204;6.568;2023-04-10T07:47:10;42.58;;;26.55;;
51800;SDS011;37855;53.204;6.568;2023-04-10T07:49:36;41.20;;;25.97;;
51800;SDS011;37855;53.204;6.568;2023-04-10T07:52:02;44.97;;;25.25;;
51800;SDS011;37855;53.204;6.568;2023-04-10T07:54:30;41.93;;;26.23;;
51800;SDS011;37855;53.204;6.568;2023-04-10T07:56:57;42.92;;;25.25;;
51800;SDS011;37855;53.204;6.568;2023-04-10T07:59:22;42.30;;;25.03;;
51800;SDS011;37855;53.204;6.568;2023-04-10T08:01:48;39.55;;;24.92;;
51800;SDS011;37855;53.204;6.568;2023-04-10T08:04:13;39.90;;;24.83;;
51800;SDS011;37855;53.204;6.568;2023-04-10T08:06:39;38.65;;;24.83;;
51800;SDS011;37855;53.204;6.568;2023-04-10T08:09:05;37.10;;;22.60;;
51800;SDS011;37855;53.204;6.568;2023-04-10T08:11:32;36.77;;;23.17;;
51800;SDS011;37855;53.204;6.568;2023-04-10T08:13:59;36.47;;;22.40;;
51800;SDS011;37855;53.204;6.568;2023-04-10T08:16:26;34.95;;;21.83;;
51800;SDS011;37855;53.204;6.568;2023-04-10T08:18:53;35.13;;;21.05;;
51800;SDS011;37855;53.204;6.568;2023-04-10T08:21:20;32.95;;;21.05;;
51800;SDS011;37855;53.204;6.568;2023-04-10T08:23:48;34.58;;;21.65;;
51800;SDS011;37855;53.204;6.568;2023-04-10T08:26:15;35.47;;;21.53;;
51800;SDS011;37855;53.204;6.568;2023-04-10T08:28:41;37.13;;;22.77;;
51800;SDS011;37855;53.204;6.568;2023-04-10T08:31:11;34.60;;;21.60;;
51800;SDS011;37855;53.204;6.568;2023-04-10T08:33:38;34.73;;;21.97;;
51800;SDS011;37855;53.204;6.568;2023-04-10T08:36:03;35.35;;;21.52;;
51800;SDS011;37855;53.204;6.568;2023-04-10T08:38:30;35.75;;;21.27;;
51800;SDS011;37855;53.204;6.568;2023-04-10T08:40:56;33.97;;;22.43;;
51800;SDS011;37855;53.204;6.568;2023-04-10T08:43:22;36.10;;;22.48;;
51800;SDS011;37855;53.204;6.568;2023-04-10T08:45:48;34.40;;;21.63;;
51800;SDS011;37855;53.204;6.568;2023-04-10T08:48:16;34.00;;;20.53;;
51800;SDS011;37855;53.204;6.568;2023-04-10T08:50:44;34.85;;;21.75;;
51800;SDS011;37855;53.204;6.568;2023-04-10T08:53:11;32.03;;;21.17;;
51800;SDS011;37855;53.204;6.568;2023-04-10T08:55:38;35.80;;;20.77;;
51800;SDS011;37855;53.204;6.568;2023-04-10T08:58:05;33.42;;;20.90;;
51800;SDS011;37855;53.204;6.568;2023-04-10T09:00:34;34.60;;;20.40;;
51800;SDS011;37855;53.204;6.568;2023-04-10T09:03:06;31.92;;;20.10;;
51800;SDS011;37855;53.204;6.568;2023-04-10T09:05:36;31.67;;;19.73;;
51800;SDS011;37855;53.204;6.568;2023-04-10T09:08:02;29.02;;;18.98;;
51800;SDS011;37855;53.204;6.568;2023-04-10T09:10:29;31.60;;;18.90;;
51800;SDS011;37855;53.204;6.568;2023-04-10T09:12:55;28.57;;;18.17;;
51800;SDS011;37855;53.204;6.568;2023-04-10T09:15:20;28.58;;;17.65;;
51800;SDS011;37855;53.204;6.568;2023-04-10T09:17:56;29.93;;;18.07;;
51800;SDS011;37855;53.204;6.568;2023-04-10T09:20:30;27.50;;;17.30;;
51800;SDS011;37855;53.204;6.568;2023-04-10T09:22:56;27.60;;;16.58;;
51800;SDS011;37855;53.204;6.568;2023-04-10T09:28:02;28.63;;;16.60;;
51800;SDS011;37855;53.204;6.568;2023-04-10T09:30:32;25.25;;;16.15;;
51800;SDS011;37855;53.204;6.568;2023-04-10T09:33:20;26.23;;;16.70;;
51800;SDS011;37855;53.204;6.568;2023-04-10T09:35:51;30.60;;;15.88;;
51800;SDS011;37855;53.204;6.568;2023-04-10T09:38:20;23.92;;;15.57;;
51800;SDS011;37855;53.204;6.568;2023-04-10T09:40:46;26.10;;;15.17;;
51800;SDS011;37855;53.204;6.568;2023-04-10T09:48:17;24.33;;;14.43;;
51800;SDS011;37855;53.204;6.568;2023-04-10T09:50:43;26.83;;;15.45;;
51800;SDS011;37855;53.204;6.568;2023-04-10T09:53:16;22.40;;;14.50;;
51800;SDS011;37855;53.204;6.568;2023-04-10T09:55:43;20.95;;;13.57;;
51800;SDS011;37855;53.204;6.568;2023-04-10T09:58:11;22.88;;;13.70;;
51800;SDS011;37855;53.204;6.568;2023-04-10T10:00:41;22.83;;;13.73;;
51800;SDS011;37855;53.204;6.568;2023-04-10T10:03:11;22.30;;;14.03;;
51800;SDS011;37855;53.204;6.568;2023-04-10T10:05:46;20.55;;;12.95;;
51800;SDS011;37855;53.204;6.568;2023-04-10T10:08:18;20.38;;;13.20;;
51800;SDS011;37855;53.204;6.568;2023-04-10T10:10:45;20.98;;;13.00;;
51800;SDS011;37855;53.204;6.568;2023-04-10T10:13:20;18.60;;;12.65;;
51800;SDS011;37855;53.204;6.568;2023-04-10T10:15:55;19.10;;;11.50;;
51800;SDS011;37855;53.204;6.568;2023-04-10T10:18:35;18.35;;;11.88;;
51800;SDS011;37855;53.204;6.568;2023-04-10T10:21:15;20.35;;;12.35;;
51800;SDS011;37855;53.204;6.568;2023-04-10T10:23:43;23.27;;;11.65;;
51800;SDS011;37855;53.204;6.568;2023-04-10T10:26:10;19.17;;;11.85;;
51800;SDS011;37855;53.204;6.568;2023-04-10T10:28:38;19.50;;;12.30;;
51800;SDS011;37855;53.204;6.568;2023-04-10T10:31:05;20.67;;;12.13;;
51800;SDS011;37855;53.204;6.568;2023-04-10T10:33:34;18.20;;;11.48;;
51800;SDS011;37855;53.204;6.568;2023-04-10T10:36:01;16.55;;;11.57;;
51800;SDS011;37855;53.204;6.568;2023-04-10T10:38:29;18.17;;;11.40;;
51800;SDS011;37855;53.204;6.568;2023-04-10T10:43:38;19.13;;;11.70;;
51800;SDS011;37855;53.204;6.568;2023-04-10T10:46:32;21.23;;;10.65;;
51800;SDS011;37855;53.204;6.568;2023-04-10T10:49:02;14.83;;;9.20;;
51800;SDS011;37855;53.204;6.568;2023-04-10T10:51:44;15.38;;;9.40;;
51800;SDS011;37855;53.204;6.568;2023-04-10T10:54:26;14.88;;;8.77;;
51800;SDS011;37855;53.204;6.568;2023-04-10T10:56:53;14.90;;;9.15;;
51800;SDS011;37855;53.204;6.568;2023-04-10T11:02:13;13.80;;;8.20;;
51800;SDS011;37855;53.204;6.568;2023-04-10T11:04:46;13.73;;;8.50;;
51800;SDS011;37855;53.204;6.568;2023-04-10T11:07:13;14.05;;;8.40;;
51800;SDS011;37855;53.204;6.568;2023-04-10T11:12:11;13.02;;;8.30;;
51800;SDS011;37855;53.204;6.568;2023-04-10T11:14:37;12.50;;;8.03;;
51800;SDS011;37855;53.204;6.568;2023-04-10T11:17:05;13.73;;;8.27;;
51800;SDS011;37855;53.204;6.568;2023-04-10T11:19:55;16.87;;;8.30;;
51800;SDS011;37855;53.204;6.568;2023-04-10T11:22:24;13.23;;;8.00;;
51800;SDS011;37855;53.204;6.568;2023-04-10T11:24:58;13.50;;;7.38;;
51800;SDS011;37855;53.204;6.568;2023-04-10T11:27:38;10.93;;;6.57;;
51800;SDS011;37855;53.204;6.568;2023-04-10T11:32:56;15.10;;;7.23;;
51800;SDS011;37855;53.204;6.568;2023-04-10T11:35:24;11.82;;;6.97;;
51800;SDS011;37855;53.204;6.568;2023-04-10T11:37:51;12.05;;;6.65;;
51800;SDS011;37855;53.204;6.568;2023-04-10T11:40:31;11.68;;;6.20;;
51800;SDS011;37855;53.204;6.568;2023-04-10T11:43:10;10.67;;;6.20;;
51800;SDS011;37855;53.204;6.568;2023-04-10T11:45:39;10.15;;;6.43;;
51800;SDS011;37855;53.204;6.568;2023-04-10T11:48:04;9.80;;;6.40;;
51800;SDS011;37855;53.204;6.568;2023-04-10T11:50:31;12.37;;;6.40;;
51800;SDS011;37855;53.204;6.568;2023-04-10T11:53:00;10.15;;;6.10;;
51800;SDS011;37855;53.204;6.568;2023-04-10T11:55:35;9.82;;;5.80;;
51800;SDS011;37855;53.204;6.568;2023-04-10T11:58:02;8.65;;;5.50;;
51800;SDS011;37855;53.204;6.568;2023-04-10T12:00:28;9.67;;;5.80;;
51800;SDS011;37855;53.204;6.568;2023-04-10T12:02:53;12.27;;;5.22;;
51800;SDS011;37855;53.204;6.568;2023-04-10T12:05:19;10.23;;;5.80;;
51800;SDS011;37855;53.204;6.568;2023-04-10T12:07:45;10.77;;;5.43;;
51800;SDS011;37855;53.204;6.568;2023-04-10T12:10:12;8.25;;;5.07;;
51800;SDS011;37855;53.204;6.568;2023-04-10T12:12:38;9.30;;;5.10;;
51800;SDS011;37855;53.204;6.568;2023-04-10T12:15:24;14.20;;;5.65;;
51800;SDS011;37855;53.204;6.568;2023-04-10T12:17:53;8.32;;;5.07;;
51800;SDS011;37855;53.204;6.568;2023-04-10T12:20:19;9.90;;;5.07;;
51800;SDS011;37855;53.204;6.568;2023-04-10T12:22:47;9.77;;;5.30;;
51800;SDS011;37855;53.204;6.568;2023-04-10T12:25:13;8.00;;;4.80;;
51800;SDS011;37855;53.204;6.568;2023-04-10T12:27:46;10.13;;;4.93;;
51800;SDS011;37855;53.204;6.568;2023-04-10T12:30:14;7.35;;;4.40;;
51800;SDS011;37855;53.204;6.568;2023-04-10T12:32:40;8.63;;;4.57;;
51800;SDS011;37855;53.204;6.568;2023-04-10T12:35:14;17.05;;;4.80;;
51800;SDS011;37855;53.204;6.568;2023-04-10T12:37:49;9.82;;;4.10;;
51800;SDS011;37855;53.204;6.568;2023-04-10T12:40:17;8.15;;;4.00;;
51800;SDS011;37855;53.204;6.568;2023-04-10T12:42:45;7.73;;;4.37;;
51800;SDS011;37855;53.204;6.568;2023-04-10T12:45:11;10.20;;;4.80;;
51800;SDS011;37855;53.204;6.568;2023-04-10T12:47:47;7.38;;;4.22;;
51800;SDS011;37855;53.204;6.568;2023-04-10T12:50:18;9.18;;;4.22;;
51800;SDS011;37855;53.204;6.568;2023-04-10T12:53:03;7.93;;;4.38;;
51800;SDS011;37855;53.204;6.568;2023-04-10T12:55:34;8.77;;;4.23;;
51800;SDS011;37855;53.204;6.568;2023-04-10T12:58:14;12.38;;;4.40;;
51800;SDS011;37855;53.204;6.568;2023-04-10T13:00:41;8.93;;;4.30;;
51800;SDS011;37855;53.204;6.568;2023-04-10T13:03:07;8.97;;;4.13;;
51800;SDS011;37855;53.204;6.568;2023-04-10T13:05:33;10.32;;;4.13;;
51800;SDS011;37855;53.204;6.568;2023-04-10T13:07:59;8.00;;;4.25;;
51800;SDS011;37855;53.204;6.568;2023-04-10T13:10:25;12.10;;;4.70;;
51800;SDS011;37855;53.204;6.568;2023-04-10T13:12:50;10.13;;;4.60;;
51800;SDS011;37855;53.204;6.568;2023-04-10T13:15:16;9.87;;;4.30;;
51800;SDS011;37855;53.204;6.568;2023-04-10T13:17:42;8.93;;;4.43;;
51800;SDS011;37855;53.204;6.568;2023-04-10T13:20:10;7.40;;;4.30;;
51800;SDS011;37855;53.204;6.568;2023-04-10T13:22:37;7.60;;;4.45;;
51800;SDS011;37855;53.204;6.568;2023-04-10T13:25:03;9.83;;;4.80;;
51800;SDS011;37855;53.204;6.568;2023-04-10T13:27:29;10.18;;;4.55;;
51800;SDS011;37855;53.204;6.568;2023-04-10T13:29:55;10.02;;;4.40;;
51800;SDS011;37855;53.204;6.568;2023-04-10T13:32:20;10.07;;;4.53;;
51800;SDS011;37855;53.204;6.568;2023-04-10T13:34:46;6.83;;;4.33;;
51800;SDS011;37855;53.204;6.568;2023-04-10T13:37:12;8.30;;;4.27;;
51800;SDS011;37855;53.204;6.568;2023-04-10T13:39:37;9.53;;;4.70;;
51800;SDS011;37855;53.204;6.568;2023-04-10T13:42:03;8.23;;;4.63;;
51800;SDS011;37855;53.204;6.568;2023-04-10T13:44:29;8.13;;;4.63;;
51800;SDS011;37855;53.204;6.568;2023-04-10T13:46:55;7.67;;;4.70;;
51800;SDS011;37855;53.204;6.568;2023-04-10T13:49:22;8.23;;;4.97;;
51800;SDS011;37855;53.204;6.568;2023-04-10T13:51:48;10.18;;;5.25;;
51800;SDS011;37855;53.204;6.568;2023-04-10T13:54:14;8.82;;;4.72;;
51800;SDS011;37855;53.204;6.568;2023-04-10T13:56:41;10.63;;;4.90;;
51800;SDS011;37855;53.204;6.568;2023-04-10T13:59:08;11.23;;;4.68;;
51800;SDS011;37855;53.204;6.568;2023-04-10T14:01:33;9.43;;;4.75;;
51800;SDS011;37855;53.204;6.568;2023-04-10T14:03:59;9.97;;;4.80;;
51800;SDS011;37855;53.204;6.568;2023-04-10T14:06:25;7.38;;;4.40;;
51800;SDS011;37855;53.204;6.568;2023-04-10T14:08:51;8.10;;;4.63;;
51800;SDS011;37855;53.204;6.568;2023-04-10T14:11:17;8.32;;;4.65;;
51800;SDS011;37855;53.204;6.568;2023-04-10T14:13:42;7.67;;;4.50;;
51800;SDS011;37855;53.204;6.568;2023-04-10T14:16:08;6.30;;;4.03;;
51800;SDS011;37855;53.204;6.568;2023-04-10T14:18:34;7.43;;;4.63;;
51800;SDS011;37855;53.204;6.568;2023-04-10T14:21:00;7.63;;;4.25;;
51800;SDS011;37855;53.204;6.568;2023-04-10T14:23:26;8.18;;;4.75;;
51800;SDS011;37855;53.204;6.568;2023-04-10T14:25:52;8.73;;;4.93;;
51800;SDS011;37855;53.204;6.568;2023-04-10T14:28:17;8.45;;;4.68;;
51800;SDS011;37855;53.204;6.568;2023-04-10T14:30:46;8.67;;;4.63;;
51800;SDS011;37855;53.204;6.568;2023-04-10T14:33:15;7.60;;;4.80;;
51800;SDS011;37855;53.204;6.568;2023-04-10T14:35:42;7.80;;;4.63;;
51800;SDS011;37855;53.204;6.568;2023-04-10T14:38:09;6.57;;;4.23;;
51800;SDS011;37855;53.204;6.568;2023-04-10T14:40:35;7.25;;;4.40;;
51800;SDS011;37855;53.204;6.568;2023-04-10T14:43:03;7.80;;;4.30;;
51800;SDS011;37855;53.204;6.568;2023-04-10T14:45:30;7.20;;;4.38;;
51800;SDS011;37855;53.204;6.568;2023-04-10T14:47:56;7.80;;;4.20;;
51800;SDS011;37855;53.204;6.568;2023-04-10T14:50:22;7.65;;;4.40;;
51800;SDS011;37855;53.204;6.568;2023-04-10T14:52:47;7.67;;;4.10;;
51800;SDS011;37855;53.204;6.568;2023-04-10T14:55:14;7.55;;;4.30;;
51800;SDS011;37855;53.204;6.568;2023-04-10T14:57:40;7.93;;;4.35;;
51800;SDS011;37855;53.204;6.568;2023-04-10T15:00:06;7.57;;;4.53;;